createdAt,value
2023-03-17T00:01:09.820Z,98.58
2023-03-17T00:05:24.311Z,100.00
2023-03-17T00:09:27.084Z,100.00
2023-03-17T00:13:31.175Z,100.00
2023-03-17T00:17:33.836Z,100.00
2023-03-17T00:21:36.035Z,100.00
2023-03-17T00:25:43.098Z,100.00
2023-03-17T00:29:45.357Z,100.00
2023-03-17T00:33:49.024Z,99.92
2023-03-17T00:37:54.876Z,100.00
2023-03-17T00:41:57.080Z,97.05
2023-03-17T00:45:59.165Z,95.36
2023-03-17T00:50:01.377Z,94.01
2023-03-17T00:54:03.683Z,92.33
2023-03-17T00:58:33.966Z,98.61
2023-03-17T01:02:36.285Z,100.00
2023-03-17T01:06:38.682Z,100.00
2023-03-17T01:10:41.771Z,98.41
2023-03-17T01:14:44.142Z,99.78
2023-03-17T01:18:47.374Z,100.00
2023-03-17T01:22:50.703Z,99.99
2023-03-17T01:26:52.891Z,100.00
2023-03-17T01:30:55.644Z,99.76
2023-03-17T01:34:59.258Z,100.00
2023-03-17T01:39:01.937Z,92.98
2023-03-17T01:43:19.043Z,86.00
2023-03-17T01:47:22.292Z,76.14
2023-03-17T01:51:35.985Z,75.90
2023-03-17T01:55:38.643Z,71.94
2023-03-17T01:59:50.254Z,84.58
2023-03-17T02:03:53.727Z,85.23
2023-03-17T02:07:58.779Z,78.83
2023-03-17T02:12:05.405Z,80.15
2023-03-17T02:16:08.124Z,78.90
2023-03-17T02:20:16.311Z,84.76
2023-03-17T02:24:28.040Z,86.28
2023-03-17T02:28:31.798Z,90.37
2023-03-17T02:32:38.049Z,91.08
2023-03-17T02:36:40.797Z,89.69
2023-03-17T02:40:43.617Z,88.58
2023-03-17T02:44:45.874Z,88.02
2023-03-17T02:48:49.239Z,86.04
2023-03-17T02:52:51.892Z,84.92
2023-03-17T02:56:54.032Z,84.62
2023-03-17T03:00:56.681Z,83.56
2023-03-17T03:04:59.289Z,77.08
2023-03-17T03:09:01.880Z,75.86
2023-03-17T03:13:09.027Z,75.71
2023-03-17T03:17:12.832Z,75.59
2023-03-17T03:21:15.513Z,74.67
2023-03-17T03:25:18.008Z,75.98
2023-03-17T03:29:20.437Z,75.72
2023-03-17T03:33:22.891Z,78.62
2023-03-17T03:37:26.081Z,81.82
2023-03-17T03:41:28.338Z,85.08
2023-03-17T03:45:30.997Z,85.19
2023-03-17T03:49:33.574Z,84.55
2023-03-17T03:53:35.758Z,85.61
2023-03-17T03:57:37.978Z,81.33
2023-03-17T04:01:40.247Z,83.95
2023-03-17T04:05:42.341Z,84.66
2023-03-17T04:09:44.476Z,88.60
2023-03-17T04:13:46.646Z,89.88
2023-03-17T04:17:48.819Z,90.83
2023-03-17T04:21:53.592Z,90.14
2023-03-17T04:25:56.877Z,88.98
2023-03-17T04:29:59.453Z,87.80
2023-03-17T04:34:01.787Z,89.80
2023-03-17T04:38:04.451Z,87.46
2023-03-17T04:42:06.949Z,89.97
2023-03-17T04:46:09.513Z,97.02
2023-03-17T04:50:12.330Z,96.20
2023-03-17T04:54:14.501Z,93.58
2023-03-17T04:58:29.868Z,94.34
2023-03-17T05:02:32.543Z,94.71
2023-03-17T05:06:35.969Z,94.33
2023-03-17T05:10:38.038Z,91.78
2023-03-17T05:14:40.639Z,91.34
2023-03-17T05:18:43.789Z,90.46
2023-03-17T05:22:46.622Z,93.13
2023-03-17T05:26:48.873Z,90.50
2023-03-17T05:30:52.201Z,92.25
2023-03-17T05:34:54.584Z,94.63
2023-03-17T05:38:56.765Z,95.35
2023-03-17T05:42:58.918Z,97.15
2023-03-17T05:47:01.234Z,98.94
2023-03-17T05:51:03.719Z,100.00
2023-03-17T05:55:07.910Z,98.86
2023-03-17T05:59:14.968Z,96.98
2023-03-17T06:03:17.303Z,95.58
2023-03-17T06:07:19.475Z,94.40
2023-03-17T06:11:22.180Z,93.93
2023-03-17T06:20:19.517Z,95.08
2023-03-17T06:24:21.801Z,96.95
2023-03-17T06:28:25.073Z,96.63
2023-03-17T06:32:27.895Z,94.44
2023-03-17T06:36:32.618Z,99.92
2023-03-17T06:40:35.099Z,100.00
2023-03-17T06:44:38.073Z,100.00
2023-03-17T06:48:40.240Z,98.64
2023-03-17T06:52:42.828Z,97.64
2023-03-17T06:56:45.351Z,98.75
2023-03-17T07:00:49.454Z,96.34
2023-03-17T07:04:53.738Z,82.80
2023-03-17T07:08:56.837Z,79.44
2023-03-17T07:13:05.406Z,78.60
2023-03-17T07:17:14.876Z,76.05
2023-03-17T07:21:21.113Z,73.04
2023-03-17T07:25:24.222Z,71.93
2023-03-17T07:29:32.991Z,69.53
2023-03-17T07:33:37.142Z,69.47
2023-03-17T07:37:41.952Z,66.11
2023-03-17T07:41:44.455Z,67.34
2023-03-17T07:45:53.692Z,61.88
2023-03-17T07:49:58.176Z,63.81
2023-03-17T07:54:04.765Z,60.64
2023-03-17T07:58:15.794Z,57.43
2023-03-17T08:02:23.445Z,59.97
2023-03-17T08:06:26.740Z,58.71
2023-03-17T08:10:29.315Z,56.61
2023-03-17T08:14:32.461Z,55.41
2023-03-17T08:18:36.396Z,55.80
2023-03-17T08:22:40.981Z,54.31
2023-03-17T08:26:48.683Z,51.89
2023-03-17T08:30:51.293Z,53.26
2023-03-17T08:34:54.860Z,52.20
2023-03-17T08:38:59.113Z,51.58
2023-03-17T08:43:01.493Z,51.93
2023-03-17T08:47:04.454Z,49.70
2023-03-17T08:51:11.316Z,48.13
2023-03-17T08:55:15.542Z,49.42
2023-03-17T08:59:17.908Z,48.87
2023-03-17T09:03:21.668Z,47.62
2023-03-17T09:07:24.010Z,46.76
2023-03-17T09:11:30.658Z,46.72
2023-03-17T09:15:39.178Z,46.15
2023-03-17T09:19:43.886Z,45.31
2023-03-17T09:23:49.908Z,45.05
2023-03-17T09:27:55.904Z,43.54
2023-03-17T09:31:58.193Z,45.76
2023-03-17T09:36:00.762Z,45.34
2023-03-17T09:40:08.516Z,44.89
2023-03-17T09:44:26.424Z,43.81
2023-03-17T09:48:46.994Z,43.98
2023-03-17T09:52:55.538Z,46.57
2023-03-17T09:57:06.364Z,46.20
2023-03-17T10:01:10.752Z,45.17
2023-03-17T10:05:42.530Z,36.85
2023-03-17T10:10:15.665Z,41.14
2023-03-17T10:14:22.541Z,42.47
2023-03-17T10:18:31.462Z,42.72
2023-03-17T10:23:18.463Z,39.64
2023-03-17T10:27:21.740Z,44.11
2023-03-17T10:31:30.820Z,42.62
2023-03-17T10:35:37.216Z,43.06
2023-03-17T10:39:49.460Z,38.98
2023-03-17T10:43:52.283Z,41.78
2023-03-17T10:47:57.486Z,41.47
2023-03-17T10:52:00.988Z,41.14
2023-03-17T10:56:20.544Z,38.84
2023-03-17T11:00:23.538Z,41.02
2023-03-17T11:04:29.212Z,35.76
2023-03-17T11:08:35.562Z,40.36
2023-03-17T11:12:41.440Z,40.02
2023-03-17T11:16:56.956Z,40.19
2023-03-17T11:21:20.163Z,37.89
2023-03-17T11:25:23.685Z,41.00
2023-03-17T11:29:35.213Z,36.76
2023-03-17T11:33:40.533Z,38.01
2023-03-17T11:37:42.757Z,40.01
2023-03-17T11:42:10.917Z,39.49
2023-03-17T11:46:38.163Z,39.19
2023-03-17T11:50:45.809Z,41.49
2023-03-17T11:55:25.066Z,42.51
2023-03-17T11:59:47.659Z,42.83
2023-03-17T12:04:28.358Z,41.47
2023-03-17T12:08:45.582Z,42.98
2023-03-17T12:12:54.257Z,43.79
2023-03-17T12:17:00.763Z,44.20
2023-03-17T12:21:33.470Z,43.62
2023-03-17T12:25:57.907Z,43.51
2023-03-17T12:30:24.297Z,42.88
2023-03-17T12:34:36.972Z,42.06
2023-03-17T12:39:09.427Z,43.16
2023-03-17T12:43:36.515Z,44.22
2023-03-17T12:47:38.764Z,45.03
2023-03-17T12:51:53.825Z,43.61
2023-03-17T12:56:01.410Z,44.59
2023-03-17T13:00:15.501Z,45.18
2023-03-17T13:04:35.578Z,44.55
2023-03-17T13:08:41.353Z,44.64
2023-03-17T13:13:04.111Z,43.00
2023-03-17T13:17:19.976Z,43.43
2023-03-17T13:21:23.777Z,44.78
2023-03-17T13:25:38.428Z,43.82
2023-03-17T13:29:46.289Z,44.09
2023-03-17T13:33:54.976Z,44.02
2023-03-17T13:37:59.962Z,44.80
2023-03-17T13:42:26.734Z,42.55
2023-03-17T13:46:41.896Z,43.99
2023-03-17T13:50:44.789Z,43.95
2023-03-17T13:54:58.835Z,43.70
2023-03-17T13:59:05.580Z,43.49
2023-03-17T14:03:29.404Z,40.66
2023-03-17T14:07:51.079Z,42.80
2023-03-17T14:11:54.824Z,43.60
2023-03-17T14:16:33.047Z,39.36
2023-03-17T14:20:35.334Z,43.41
2023-03-17T14:24:37.505Z,43.68
2023-03-17T14:28:40.222Z,43.20
2023-03-17T14:32:47.415Z,42.23
2023-03-17T14:36:51.733Z,43.03
2023-03-17T14:41:00.963Z,39.31
2023-03-17T14:45:19.246Z,42.67
2023-03-17T14:49:23.233Z,43.70
2023-03-17T14:53:26.507Z,43.73
2023-03-17T14:57:33.413Z,41.70
2023-03-17T15:01:43.658Z,41.52
2023-03-17T15:05:46.815Z,42.88
2023-03-17T15:09:59.816Z,41.73
2023-03-17T15:14:21.607Z,42.16
2023-03-17T15:18:25.473Z,43.41
2023-03-17T15:22:41.587Z,42.63
2023-03-17T15:26:43.747Z,43.52
2023-03-17T15:30:51.592Z,42.29
2023-03-17T15:34:57.219Z,43.02
2023-03-17T15:38:59.533Z,43.08
2023-03-17T15:43:01.742Z,42.95
2023-03-17T15:47:04.437Z,42.84
2023-03-17T15:51:07.500Z,42.96
2023-03-17T15:55:21.425Z,41.62
2023-03-17T15:59:23.850Z,43.07
2023-03-17T16:03:32.750Z,41.95
2023-03-17T16:07:35.021Z,42.91
2023-03-17T16:11:39.388Z,42.67
2023-03-17T16:15:46.348Z,42.46
2023-03-17T16:19:48.881Z,42.10
2023-03-17T16:23:51.067Z,42.06
2023-03-17T16:27:55.719Z,41.75
2023-03-17T16:31:57.897Z,41.80
2023-03-17T16:36:01.434Z,41.52
2023-03-17T16:40:05.120Z,40.99
2023-03-17T16:44:11.712Z,39.89
2023-03-17T16:48:14.994Z,40.83
2023-03-17T16:52:17.392Z,41.38
2023-03-17T16:56:22.541Z,41.16
2023-03-17T17:00:28.577Z,41.48
2023-03-17T17:04:31.317Z,42.30
2023-03-17T17:08:33.648Z,42.44
2023-03-17T17:12:36.023Z,42.80
2023-03-17T17:16:42.144Z,43.44
2023-03-17T17:20:46.035Z,43.84
2023-03-17T17:24:48.246Z,44.05
2023-03-17T17:28:50.546Z,44.39
2023-03-17T17:32:53.346Z,45.70
2023-03-17T17:36:55.633Z,47.38
2023-03-17T17:40:59.570Z,48.38
2023-03-17T17:45:02.186Z,50.05
2023-03-17T17:49:04.621Z,52.09
2023-03-17T17:53:11.689Z,53.61
2023-03-17T17:57:14.524Z,55.45
2023-03-17T18:01:20.562Z,56.40
2023-03-17T18:05:23.098Z,60.26
2023-03-17T18:09:25.260Z,63.25
2023-03-17T18:13:27.475Z,65.29
2023-03-17T18:17:32.005Z,67.31
2023-03-17T18:21:36.640Z,68.71
2023-03-17T18:25:39.000Z,70.13
2023-03-17T18:29:41.616Z,70.90
2023-03-17T18:33:47.034Z,72.80
2023-03-17T18:37:50.940Z,74.15
2023-03-17T18:41:54.137Z,76.23
2023-03-17T18:45:56.380Z,79.75
2023-03-17T18:49:59.787Z,80.95
2023-03-17T18:54:03.079Z,83.68
2023-03-17T18:58:05.448Z,84.45
2023-03-17T19:02:08.692Z,87.17
2023-03-17T19:06:13.676Z,88.23
2023-03-17T19:10:16.201Z,87.03
2023-03-17T19:14:18.399Z,89.89
2023-03-17T19:18:20.860Z,90.01
2023-03-17T19:22:23.294Z,87.68
2023-03-17T19:26:26.078Z,88.96
2023-03-17T19:30:28.374Z,91.96
2023-03-17T19:34:30.636Z,92.50
2023-03-17T19:38:33.120Z,93.06
2023-03-17T19:42:35.609Z,95.75
2023-03-17T19:46:38.439Z,94.07
2023-03-17T19:50:41.217Z,94.85
2023-03-17T19:54:45.987Z,94.96
2023-03-17T19:58:48.253Z,95.17
2023-03-17T20:02:51.388Z,96.18
2023-03-17T20:06:55.782Z,98.20
2023-03-17T20:10:58.734Z,98.39
2023-03-17T20:15:01.620Z,99.99
2023-03-17T20:19:03.971Z,100.00
2023-03-17T20:23:06.104Z,100.00
2023-03-17T20:27:10.643Z,100.00
2023-03-17T20:31:12.775Z,100.00
2023-03-17T20:35:14.913Z,100.00
2023-03-17T20:39:20.061Z,100.00
2023-03-17T20:43:22.711Z,100.00
2023-03-17T20:47:24.951Z,100.00
2023-03-17T20:51:27.972Z,100.00
2023-03-17T20:55:30.935Z,100.00
2023-03-17T20:59:34.566Z,100.00
2023-03-17T21:03:37.424Z,100.00
2023-03-17T21:07:39.670Z,100.00
2023-03-17T21:11:42.276Z,100.00
2023-03-17T21:15:44.606Z,100.00
2023-03-17T21:19:47.464Z,100.00
2023-03-17T21:23:49.650Z,100.00
2023-03-17T21:27:52.850Z,100.00
2023-03-17T21:31:56.949Z,100.00
2023-03-17T21:35:59.558Z,100.00
2023-03-17T21:40:02.025Z,100.00
2023-03-17T21:44:06.301Z,100.00
2023-03-17T21:48:08.719Z,100.00
2023-03-17T21:52:11.454Z,100.00
2023-03-17T21:56:14.147Z,100.00
2023-03-17T22:00:17.442Z,100.00
2023-03-17T22:04:19.978Z,100.00
2023-03-17T22:08:22.832Z,100.00
2023-03-17T22:12:25.540Z,100.00
2023-03-17T22:16:28.224Z,100.00
2023-03-17T22:20:30.744Z,100.00
2023-03-17T22:24:33.672Z,100.00
2023-03-17T22:28:36.042Z,100.00
2023-03-17T22:32:38.280Z,100.00
2023-03-17T22:36:41.257Z,100.00
2023-03-17T22:40:43.652Z,100.00
2023-03-17T22:44:48.580Z,100.00
2023-03-17T22:48:51.962Z,100.00
2023-03-17T22:52:54.434Z,100.00
2023-03-17T22:56:57.136Z,100.00
2023-03-17T23:01:00.279Z,100.00
2023-03-17T23:05:02.949Z,100.00
2023-03-17T23:09:05.858Z,100.00
2023-03-17T23:13:08.778Z,100.00
2023-03-17T23:17:11.141Z,100.00
2023-03-17T23:21:21.372Z,100.00
2023-03-17T23:25:25.433Z,100.00
2023-03-17T23:29:27.863Z,100.00
2023-03-17T23:33:31.091Z,100.00
2023-03-17T23:37:33.476Z,100.00
2023-03-17T23:41:36.376Z,100.00
2023-03-17T23:45:41.341Z,100.00
2023-03-17T23:49:44.008Z,100.00
2023-03-17T23:53:46.585Z,100.00
2023-03-17T23:57:50.301Z,100.00
